Spencer, Massachusetts
Current Conditions -  °F | °C
As of 12:54 PM on Thursday 23 Oct 2014 (Local Time) from KORH Reporting Station
Light Rain Light Rain  
Wind Chill: 42°   Ceiling: 400
Heat Index: 48°   Visibility: 0.75mi
Dew Point: 47°   Wind: 17mph
Humidity: 96%   Direction: 20°NNE
Pressure: 29.64"   Gusts: 26mph
Location:  42.24°N, 71.99°W
Report Text: KORH 231654Z 02015G23KT 3/4SM R11/P6000FT -RA BR OVC004 09/08 A2964 RMK AO2 PK WND 02029/1621 SFC VIS 2 1/2 SLP041 P0003 T00890083
Loading
Personal Weather Stations






























Interactive Weather Map
Tropical Storm Tracking
New forecast layout! Learn more

10-Day Weather Forecast

Advertisements
Track Severe Weather on mobile